createdAt,value
2023-09-06T00:01:19.961Z,19.76
2023-09-06T00:03:46.838Z,19.68
2023-09-06T00:06:13.603Z,19.64
2023-09-06T00:08:40.520Z,19.65
2023-09-06T00:11:07.205Z,19.63
2023-09-06T00:13:35.507Z,19.61
2023-09-06T00:16:04.221Z,19.47
2023-09-06T00:18:31.739Z,19.29
2023-09-06T00:20:59.055Z,19.54
2023-09-06T00:23:26.376Z,19.51
2023-09-06T00:25:55.041Z,19.38
2023-09-06T00:28:21.949Z,19.43
2023-09-06T00:30:48.901Z,19.31
2023-09-06T00:33:15.672Z,19.33
2023-09-06T00:35:42.395Z,19.37
2023-09-06T00:38:09.621Z,19.25
2023-09-06T00:40:38.383Z,19.38
2023-09-06T00:43:06.690Z,19.36
2023-09-06T00:45:40.772Z,19.40
2023-09-06T00:48:09.021Z,19.30
2023-09-06T00:50:37.532Z,19.06
2023-09-06T00:53:07.667Z,19.20
2023-09-06T00:55:42.448Z,19.29
2023-09-06T00:58:10.184Z,19.33
2023-09-06T01:00:37.330Z,19.18
2023-09-06T01:03:07.244Z,19.28
2023-09-06T01:05:50.315Z,19.27
2023-09-06T01:08:23.277Z,19.26
2023-09-06T01:10:51.813Z,19.25
2023-09-06T01:13:19.082Z,19.02
2023-09-06T01:15:49.794Z,19.12
2023-09-06T01:18:17.652Z,19.08
2023-09-06T01:21:03.436Z,19.14
2023-09-06T01:23:40.194Z,19.14
2023-09-06T01:26:07.725Z,19.01
2023-09-06T01:28:34.926Z,18.93
2023-09-06T01:31:02.502Z,18.79
2023-09-06T01:33:32.736Z,18.91
2023-09-06T01:35:59.743Z,18.75
2023-09-06T01:38:26.854Z,18.83
2023-09-06T01:40:54.960Z,18.77
2023-09-06T01:43:21.716Z,18.83
2023-09-06T01:45:52.961Z,18.79
2023-09-06T01:48:20.361Z,18.76
2023-09-06T01:50:47.988Z,18.80
2023-09-06T01:53:14.872Z,18.42
2023-09-06T01:55:43.051Z,18.74
2023-09-06T01:58:11.333Z,18.71
2023-09-06T02:00:39.043Z,18.59
2023-09-06T02:03:08.049Z,18.80
2023-09-06T02:05:35.204Z,18.69
2023-09-06T02:08:02.664Z,18.63
2023-09-06T02:10:29.441Z,18.66
2023-09-06T02:12:56.144Z,18.58
2023-09-06T02:15:24.335Z,18.56
2023-09-06T02:17:51.335Z,18.51
2023-09-06T02:20:21.759Z,18.62
2023-09-06T02:22:49.727Z,18.61
2023-09-06T02:25:17.486Z,18.40
2023-09-06T02:27:44.379Z,18.30
2023-09-06T02:30:11.399Z,18.49
2023-09-06T02:32:38.266Z,18.39
2023-09-06T02:35:07.506Z,18.47
2023-09-06T02:37:37.867Z,18.32
2023-09-06T02:40:22.999Z,18.28
2023-09-06T02:42:52.744Z,18.36
2023-09-06T02:45:19.740Z,18.34
2023-09-06T02:47:52.186Z,18.42
2023-09-06T02:50:26.150Z,18.39
2023-09-06T02:52:57.654Z,18.21
2023-09-06T02:55:25.255Z,18.19
2023-09-06T02:57:52.840Z,18.23
2023-09-06T03:00:26.404Z,18.23
2023-09-06T03:03:00.820Z,18.13
2023-09-06T03:05:28.539Z,18.23
2023-09-06T03:07:56.344Z,18.15
2023-09-06T03:10:24.491Z,18.17
2023-09-06T03:12:56.263Z,18.15
2023-09-06T03:15:24.029Z,18.13
2023-09-06T03:17:52.561Z,18.04
2023-09-06T03:20:35.171Z,18.10
2023-09-06T03:23:19.039Z,17.97
2023-09-06T03:25:51.079Z,18.06
2023-09-06T03:28:21.673Z,17.95
2023-09-06T03:30:49.650Z,17.96
2023-09-06T03:33:16.767Z,17.97
2023-09-06T03:35:47.013Z,17.91
2023-09-06T03:38:21.707Z,17.89
2023-09-06T03:40:50.605Z,17.81
2023-09-06T03:43:18.658Z,17.89
2023-09-06T03:45:54.677Z,17.86
2023-09-06T03:48:24.849Z,17.85
2023-09-06T03:50:58.750Z,17.74
2023-09-06T03:53:29.344Z,17.65
2023-09-06T03:56:01.867Z,17.78
2023-09-06T03:58:29.264Z,17.74
2023-09-06T04:00:57.377Z,17.67
2023-09-06T04:03:24.320Z,17.68
2023-09-06T04:05:52.489Z,17.53
2023-09-06T04:08:19.717Z,17.70
2023-09-06T04:10:47.417Z,17.72
2023-09-06T04:13:15.382Z,17.55
2023-09-06T04:15:45.354Z,17.61
2023-09-06T04:18:13.282Z,17.66
2023-09-06T04:20:45.949Z,17.57
2023-09-06T04:23:14.525Z,17.59
2023-09-06T04:25:43.339Z,17.62
2023-09-06T04:28:14.654Z,17.59
2023-09-06T04:30:43.409Z,17.58
2023-09-06T04:33:17.343Z,17.51
2023-09-06T04:35:49.219Z,17.52
2023-09-06T04:38:17.935Z,17.14
2023-09-06T04:40:45.946Z,17.48
2023-09-06T04:43:14.298Z,17.48
2023-09-06T04:45:41.133Z,17.46
2023-09-06T04:48:10.120Z,17.47
2023-09-06T04:50:41.564Z,17.33
2023-09-06T04:53:09.520Z,17.43
2023-09-06T04:55:37.307Z,17.37
2023-09-06T04:58:05.295Z,17.38
2023-09-06T05:00:34.423Z,17.41
2023-09-06T05:03:04.572Z,17.31
2023-09-06T05:05:31.603Z,17.32
2023-09-06T05:07:58.321Z,17.45
2023-09-06T05:10:25.938Z,17.41
2023-09-06T05:12:52.873Z,17.44
2023-09-06T05:15:19.834Z,17.28
2023-09-06T05:17:46.495Z,17.32
2023-09-06T05:20:31.885Z,17.45
2023-09-06T05:23:04.371Z,17.47
2023-09-06T05:25:31.847Z,17.39
2023-09-06T05:28:03.215Z,17.44
2023-09-06T05:30:30.290Z,17.57
2023-09-06T05:32:57.802Z,17.49
2023-09-06T05:35:25.156Z,17.19
2023-09-06T05:37:51.988Z,17.81
2023-09-06T05:40:26.199Z,17.88
2023-09-06T05:42:53.712Z,17.93
2023-09-06T05:45:24.234Z,17.98
2023-09-06T05:47:51.644Z,18.04
2023-09-06T05:50:18.715Z,18.13
2023-09-06T05:52:45.712Z,18.14
2023-09-06T05:55:12.466Z,18.19
2023-09-06T05:57:40.096Z,18.36
2023-09-06T06:00:13.968Z,18.33
2023-09-06T06:02:41.401Z,18.51
2023-09-06T06:05:08.970Z,18.60
2023-09-06T06:07:35.779Z,18.53
2023-09-06T06:10:02.875Z,18.58
2023-09-06T06:12:29.712Z,18.68
2023-09-06T06:14:58.299Z,18.79
2023-09-06T06:17:25.128Z,18.89
2023-09-06T06:19:53.156Z,18.99
2023-09-06T06:22:19.826Z,19.12
2023-09-06T06:24:47.421Z,19.03
2023-09-06T06:27:14.717Z,19.38
2023-09-06T06:29:41.586Z,19.42
2023-09-06T06:32:08.731Z,19.59
2023-09-06T06:34:40.295Z,19.60
2023-09-06T06:37:07.282Z,19.77
2023-09-06T06:39:34.011Z,19.74
2023-09-06T06:42:00.823Z,20.04
2023-09-06T06:44:27.819Z,20.11
2023-09-06T06:46:55.123Z,20.30
2023-09-06T06:49:21.859Z,20.42
2023-09-06T06:51:48.581Z,20.56
2023-09-06T06:54:16.137Z,20.67
2023-09-06T06:56:43.429Z,20.94
2023-09-06T06:59:11.246Z,20.86
2023-09-06T07:01:38.295Z,21.22
2023-09-06T07:04:05.848Z,21.36
2023-09-06T07:06:33.339Z,22.23
2023-09-06T07:09:01.065Z,23.32
2023-09-06T07:11:27.711Z,24.54
2023-09-06T07:13:55.154Z,25.72
2023-09-06T07:16:22.161Z,26.69
2023-09-06T07:18:48.980Z,27.60
2023-09-06T07:21:16.940Z,28.52
2023-09-06T07:23:44.269Z,29.42
2023-09-06T07:26:11.130Z,29.94
2023-09-06T07:28:46.641Z,30.64
2023-09-06T07:31:15.584Z,31.00
2023-09-06T07:33:43.739Z,30.87
2023-09-06T07:36:12.402Z,30.43
2023-09-06T07:38:39.185Z,29.81
2023-09-06T07:41:08.458Z,29.35
2023-09-06T07:43:38.324Z,28.86
2023-09-06T07:46:09.469Z,28.45
2023-09-06T07:48:37.614Z,28.10
2023-09-06T07:51:05.388Z,27.74
2023-09-06T07:53:33.263Z,27.46
2023-09-06T07:56:00.338Z,27.10
2023-09-06T07:58:29.004Z,27.06
2023-09-06T08:01:15.122Z,26.84
2023-09-06T08:03:44.024Z,26.78
2023-09-06T08:06:10.903Z,26.72
2023-09-06T08:08:37.746Z,26.81
2023-09-06T08:11:05.670Z,26.59
2023-09-06T08:13:32.659Z,26.71
2023-09-06T08:15:59.351Z,26.57
2023-09-06T08:18:26.402Z,26.54
2023-09-06T08:20:53.215Z,26.36
2023-09-06T08:23:19.968Z,26.35
2023-09-06T08:25:47.536Z,26.37
2023-09-06T08:28:18.527Z,26.29
2023-09-06T08:30:48.250Z,26.27
2023-09-06T08:33:15.908Z,26.18
2023-09-06T08:35:43.342Z,26.09
2023-09-06T08:38:13.423Z,26.09
2023-09-06T08:40:41.118Z,26.00
2023-09-06T08:43:11.307Z,25.96
2023-09-06T08:45:42.461Z,25.78
2023-09-06T08:48:09.917Z,25.91
2023-09-06T08:50:39.033Z,25.70
2023-09-06T08:53:07.296Z,25.90
2023-09-06T08:55:34.379Z,25.68
2023-09-06T08:58:04.343Z,25.93
2023-09-06T09:00:31.658Z,25.87
2023-09-06T09:02:59.465Z,26.00
2023-09-06T09:05:26.658Z,25.98
2023-09-06T09:08:01.163Z,26.05
2023-09-06T09:10:33.365Z,26.09
2023-09-06T09:13:02.185Z,26.11
2023-09-06T09:15:34.879Z,26.02
2023-09-06T09:18:12.823Z,25.70
2023-09-06T09:20:42.022Z,26.08
2023-09-06T09:23:15.791Z,26.20
2023-09-06T09:25:52.447Z,26.38
2023-09-06T09:28:19.550Z,25.85
2023-09-06T09:30:50.306Z,26.28
2023-09-06T09:33:17.623Z,26.32
2023-09-06T09:35:46.064Z,26.33
2023-09-06T09:38:13.426Z,26.35
2023-09-06T09:43:10.590Z,26.54
2023-09-06T09:45:44.523Z,26.49
2023-09-06T09:48:11.673Z,26.71
2023-09-06T09:50:42.834Z,26.73
2023-09-06T09:53:33.902Z,26.65
2023-09-06T09:56:01.947Z,26.69
2023-09-06T09:58:31.761Z,26.83
2023-09-06T10:01:01.375Z,26.97
2023-09-06T10:03:30.458Z,27.04
2023-09-06T10:05:59.498Z,27.04
2023-09-06T10:08:28.893Z,27.05
2023-09-06T10:10:55.842Z,27.08
2023-09-06T10:13:28.459Z,27.21
2023-09-06T10:15:58.363Z,27.25
2023-09-06T10:18:26.259Z,27.23
2023-09-06T10:20:54.522Z,27.31
2023-09-06T10:23:22.278Z,27.36
2023-09-06T10:25:55.513Z,27.25
2023-09-06T10:28:24.788Z,27.43
2023-09-06T10:30:59.441Z,27.48
2023-09-06T10:33:35.259Z,27.56
2023-09-06T10:36:08.705Z,27.61
2023-09-06T10:39:11.463Z,27.65
2023-09-06T10:41:38.806Z,27.63
2023-09-06T10:44:07.562Z,27.67
2023-09-06T10:46:35.823Z,27.74
2023-09-06T10:49:22.546Z,27.68
2023-09-06T10:52:09.526Z,27.83
2023-09-06T10:54:45.393Z,27.78
2023-09-06T10:57:16.268Z,27.81
2023-09-06T11:00:18.703Z,28.01
2023-09-06T11:02:45.864Z,28.12
2023-09-06T11:05:36.642Z,28.15
2023-09-06T11:08:07.252Z,28.09
2023-09-06T11:10:39.614Z,28.28
2023-09-06T11:13:13.910Z,28.16
2023-09-06T11:15:41.061Z,28.36
2023-09-06T11:18:10.204Z,28.35
2023-09-06T11:20:37.869Z,28.32
2023-09-06T11:23:05.194Z,28.36
2023-09-06T11:25:35.658Z,28.62
2023-09-06T11:28:16.803Z,28.60
2023-09-06T11:30:51.298Z,28.64
2023-09-06T11:33:19.571Z,28.67
2023-09-06T11:35:53.552Z,28.79
2023-09-06T11:38:26.674Z,28.84
2023-09-06T11:40:53.920Z,28.95
2023-09-06T11:43:24.342Z,28.95
2023-09-06T11:45:56.459Z,28.96
2023-09-06T11:48:29.050Z,29.02
2023-09-06T11:51:06.684Z,29.03
2023-09-06T11:53:34.487Z,29.18
2023-09-06T11:56:01.338Z,29.30
2023-09-06T11:58:29.538Z,29.30
2023-09-06T12:00:57.637Z,29.25
2023-09-06T12:03:35.262Z,29.30
2023-09-06T12:06:04.035Z,29.36
2023-09-06T12:08:34.943Z,29.32
2023-09-06T12:11:12.195Z,29.29
2023-09-06T12:13:39.866Z,29.29
2023-09-06T12:16:11.012Z,29.41
2023-09-06T12:18:38.802Z,29.45
2023-09-06T12:21:07.165Z,29.51
2023-09-06T12:23:38.022Z,29.57
2023-09-06T12:26:06.727Z,29.45
2023-09-06T12:28:34.050Z,29.44
2023-09-06T12:31:15.436Z,29.55
2023-09-06T12:33:47.154Z,29.41
2023-09-06T12:36:15.238Z,29.52
2023-09-06T12:38:41.928Z,29.58
2023-09-06T12:41:08.661Z,29.61
2023-09-06T12:43:38.449Z,29.54
2023-09-06T12:46:09.249Z,29.61
2023-09-06T12:48:36.406Z,29.75
2023-09-06T12:51:06.167Z,29.79
2023-09-06T12:53:33.557Z,29.81
2023-09-06T12:56:00.653Z,29.78
2023-09-06T12:58:28.707Z,29.76
2023-09-06T13:00:57.123Z,29.83
2023-09-06T13:03:23.946Z,29.74
2023-09-06T13:05:50.861Z,29.69
2023-09-06T13:08:20.156Z,29.78
2023-09-06T13:10:47.900Z,29.70
2023-09-06T13:13:14.814Z,29.81
2023-09-06T13:15:41.552Z,29.88
2023-09-06T13:18:08.964Z,29.83
2023-09-06T13:20:36.046Z,29.69
2023-09-06T13:23:02.815Z,30.05
2023-09-06T13:25:29.668Z,29.94
2023-09-06T13:27:56.357Z,30.13
2023-09-06T13:30:23.166Z,30.15
2023-09-06T13:32:50.122Z,30.11
2023-09-06T13:35:16.917Z,30.08
2023-09-06T13:37:43.695Z,30.07
2023-09-06T13:40:12.639Z,30.07
2023-09-06T13:42:39.479Z,30.10
2023-09-06T13:45:07.125Z,30.16
2023-09-06T13:47:33.976Z,30.10
2023-09-06T13:50:00.709Z,30.13
2023-09-06T13:52:27.847Z,30.12
2023-09-06T13:54:54.862Z,30.23
2023-09-06T13:57:21.517Z,30.25
2023-09-06T13:59:48.174Z,30.33
2023-09-06T14:02:15.245Z,30.27
2023-09-06T14:04:44.731Z,30.38
2023-09-06T14:07:12.008Z,30.36
2023-09-06T14:09:38.961Z,30.28
2023-09-06T14:12:06.074Z,30.38
2023-09-06T14:14:33.046Z,30.26
2023-09-06T14:17:00.316Z,30.30
2023-09-06T14:19:29.012Z,30.35
2023-09-06T14:21:55.633Z,30.33
2023-09-06T14:24:22.341Z,30.35
2023-09-06T14:26:48.990Z,30.33
2023-09-06T14:29:15.780Z,30.31
2023-09-06T14:31:42.997Z,30.30
2023-09-06T14:34:10.425Z,30.21
2023-09-06T14:36:38.128Z,30.28
2023-09-06T14:39:08.900Z,30.20
2023-09-06T14:41:36.767Z,30.28
2023-09-06T14:44:04.912Z,30.10
2023-09-06T14:46:32.118Z,30.11
2023-09-06T14:48:59.030Z,30.14
2023-09-06T14:51:26.124Z,30.19
2023-09-06T14:53:53.236Z,30.05
2023-09-06T14:56:20.158Z,30.11
2023-09-06T14:58:47.124Z,30.13
2023-09-06T15:01:14.108Z,30.22
2023-09-06T15:03:40.920Z,30.07
2023-09-06T15:06:08.967Z,30.15
2023-09-06T15:08:36.143Z,30.09
2023-09-06T15:11:02.890Z,30.09
2023-09-06T15:13:29.586Z,30.14
2023-09-06T15:15:56.911Z,30.12
2023-09-06T15:18:24.809Z,30.11
2023-09-06T15:20:52.185Z,30.09
2023-09-06T15:23:19.570Z,30.10
2023-09-06T15:25:46.461Z,29.99
2023-09-06T15:28:13.407Z,29.91
2023-09-06T15:30:40.407Z,30.04
2023-09-06T15:33:07.383Z,29.98
2023-09-06T15:35:34.217Z,30.00
2023-09-06T15:38:13.096Z,30.05
2023-09-06T15:40:40.036Z,29.64
2023-09-06T15:43:06.859Z,30.00
2023-09-06T15:45:34.342Z,29.96
2023-09-06T15:48:01.360Z,29.95
2023-09-06T15:50:31.058Z,29.86
2023-09-06T15:52:58.602Z,29.89
2023-09-06T15:55:25.264Z,29.82
2023-09-06T15:57:52.357Z,29.78
2023-09-06T16:02:49.617Z,29.55
2023-09-06T16:05:16.585Z,29.51
2023-09-06T16:07:43.347Z,29.56
2023-09-06T16:10:11.452Z,29.57
2023-09-06T16:12:38.594Z,29.54
2023-09-06T16:15:06.285Z,29.57
2023-09-06T16:17:33.073Z,29.52
2023-09-06T16:20:00.169Z,29.48
2023-09-06T16:22:27.091Z,29.43
2023-09-06T16:24:53.813Z,29.29
2023-09-06T16:27:21.942Z,29.31
2023-09-06T16:29:49.579Z,29.34
2023-09-06T16:32:16.481Z,29.35
2023-09-06T16:34:44.107Z,29.08
2023-09-06T16:37:11.144Z,29.23
2023-09-06T16:39:37.917Z,28.94
2023-09-06T16:42:05.274Z,28.97
2023-09-06T16:44:32.245Z,28.97
2023-09-06T16:46:59.865Z,28.81
2023-09-06T16:49:27.365Z,28.75
2023-09-06T16:51:55.379Z,28.56
2023-09-06T16:54:22.128Z,28.58
2023-09-06T16:56:49.482Z,28.36
2023-09-06T16:59:16.889Z,28.35
2023-09-06T17:01:44.239Z,28.25
2023-09-06T17:04:11.999Z,28.10
2023-09-06T17:06:38.987Z,27.86
2023-09-06T17:09:09.942Z,27.78
2023-09-06T17:11:41.686Z,27.61
2023-09-06T17:14:09.097Z,27.48
2023-09-06T17:16:36.025Z,27.42
2023-09-06T17:19:03.188Z,27.31
2023-09-06T17:21:30.646Z,27.14
2023-09-06T17:24:03.499Z,27.03
2023-09-06T17:26:32.392Z,26.97
2023-09-06T17:29:00.353Z,26.98
2023-09-06T17:31:27.200Z,26.78
2023-09-06T17:33:54.059Z,26.75
2023-09-06T17:36:20.730Z,26.64
2023-09-06T17:38:47.660Z,26.58
2023-09-06T17:41:16.523Z,26.29
2023-09-06T17:43:44.359Z,26.43
2023-09-06T17:46:12.660Z,25.97
2023-09-06T17:48:39.853Z,26.20
2023-09-06T17:51:10.333Z,26.18
2023-09-06T17:53:37.891Z,26.11
2023-09-06T17:56:16.090Z,25.99
2023-09-06T17:58:44.254Z,25.80
2023-09-06T18:01:14.044Z,25.89
2023-09-06T18:03:42.704Z,25.78
2023-09-06T18:06:14.773Z,25.59
2023-09-06T18:08:46.549Z,25.65
2023-09-06T18:11:13.427Z,25.60
2023-09-06T18:13:42.044Z,25.52
2023-09-06T18:16:12.999Z,25.44
2023-09-06T18:18:40.091Z,25.31
2023-09-06T18:21:10.393Z,25.29
2023-09-06T18:23:38.007Z,25.18
2023-09-06T18:26:05.821Z,25.11
2023-09-06T18:28:33.426Z,24.84
2023-09-06T18:31:00.871Z,24.94
2023-09-06T18:33:27.909Z,24.85
2023-09-06T18:35:56.499Z,24.79
2023-09-06T18:38:24.481Z,24.69
2023-09-06T18:40:53.638Z,24.43
2023-09-06T18:43:22.190Z,24.63
2023-09-06T18:45:48.936Z,24.60
2023-09-06T18:48:21.148Z,24.55
2023-09-06T18:50:50.746Z,24.49
2023-09-06T18:53:17.573Z,24.41
2023-09-06T18:55:47.486Z,24.29
2023-09-06T18:58:15.547Z,24.26
2023-09-06T19:00:42.861Z,24.06
2023-09-06T19:03:14.156Z,24.13
2023-09-06T19:05:42.858Z,24.06
2023-09-06T19:08:13.289Z,24.04
2023-09-06T19:10:41.409Z,23.96
2023-09-06T19:13:09.224Z,23.92
2023-09-06T19:15:36.181Z,23.86
2023-09-06T19:18:04.076Z,23.85
2023-09-06T19:20:31.067Z,23.59
2023-09-06T19:22:57.845Z,23.74
2023-09-06T19:25:28.714Z,23.61
2023-09-06T19:27:55.984Z,23.54
2023-09-06T19:30:22.685Z,23.57
2023-09-06T19:32:49.453Z,23.54
2023-09-06T19:35:16.511Z,23.41
2023-09-06T19:37:45.286Z,23.42
2023-09-06T19:40:12.360Z,23.28
2023-09-06T19:42:39.441Z,23.20
2023-09-06T19:45:06.529Z,23.17
2023-09-06T19:47:33.591Z,23.26
2023-09-06T19:50:00.798Z,23.21
2023-09-06T19:52:27.709Z,22.90
2023-09-06T19:55:02.101Z,23.11
2023-09-06T19:57:30.890Z,23.00
2023-09-06T19:59:58.555Z,22.89
2023-09-06T20:02:25.670Z,22.93
2023-09-06T20:04:52.845Z,22.77
2023-09-06T20:07:19.662Z,22.65
2023-09-06T20:09:46.651Z,22.43
2023-09-06T20:12:13.493Z,22.52
2023-09-06T20:14:40.261Z,22.64
2023-09-06T20:17:07.122Z,22.62
2023-09-06T20:19:33.866Z,22.52
2023-09-06T20:22:00.796Z,22.53
2023-09-06T20:24:28.287Z,22.40
2023-09-06T20:26:55.119Z,22.45
2023-09-06T20:29:27.164Z,22.43
2023-09-06T20:31:53.865Z,22.29
2023-09-06T20:34:20.726Z,22.31
2023-09-06T20:36:47.474Z,21.97
2023-09-06T20:39:14.300Z,21.99
2023-09-06T20:41:42.299Z,22.26
2023-09-06T20:44:09.118Z,22.11
2023-09-06T20:46:35.936Z,22.09
2023-09-06T20:49:03.394Z,22.22
2023-09-06T20:51:30.388Z,22.03
2023-09-06T20:53:57.198Z,22.03
2023-09-06T20:56:24.226Z,22.11
2023-09-06T20:58:50.858Z,22.02
2023-09-06T21:01:20.796Z,21.82
2023-09-06T21:03:48.229Z,21.96
2023-09-06T21:06:15.886Z,21.90
2023-09-06T21:08:42.980Z,21.79
2023-09-06T21:11:10.333Z,21.90
2023-09-06T21:13:37.071Z,21.70
2023-09-06T21:16:06.259Z,21.71
2023-09-06T21:18:33.747Z,21.64
2023-09-06T21:21:00.842Z,21.61
2023-09-06T21:23:27.716Z,21.68
2023-09-06T21:25:54.440Z,21.71
2023-09-06T21:28:21.180Z,21.67
2023-09-06T21:30:48.763Z,21.68
2023-09-06T21:33:16.593Z,21.55
2023-09-06T21:35:46.937Z,21.45
2023-09-06T21:38:14.117Z,21.54
2023-09-06T21:40:45.718Z,21.55
2023-09-06T21:43:18.857Z,21.48
2023-09-06T21:45:48.061Z,21.11
2023-09-06T21:48:15.144Z,21.43
2023-09-06T21:50:42.783Z,21.30
2023-09-06T21:53:10.233Z,21.19
2023-09-06T21:55:37.727Z,21.31
2023-09-06T22:00:34.467Z,20.88
2023-09-06T22:03:01.469Z,21.15
2023-09-06T22:05:28.839Z,21.13
2023-09-06T22:07:55.784Z,21.05
2023-09-06T22:10:22.504Z,21.00
2023-09-06T22:12:49.350Z,20.97
2023-09-06T22:15:16.318Z,20.87
2023-09-06T22:17:43.458Z,20.97
2023-09-06T22:20:11.023Z,20.96
2023-09-06T22:22:37.888Z,20.80
2023-09-06T22:25:06.449Z,20.76
2023-09-06T22:27:33.482Z,20.62
2023-09-06T22:30:00.627Z,20.68
2023-09-06T22:32:27.762Z,20.58
2023-09-06T22:34:54.536Z,20.71
2023-09-06T22:37:21.841Z,20.77
2023-09-06T22:39:48.757Z,20.72
2023-09-06T22:42:15.658Z,20.56
2023-09-06T22:44:42.780Z,20.65
2023-09-06T22:47:10.426Z,20.55
2023-09-06T22:49:38.677Z,20.49
2023-09-06T22:52:07.739Z,20.55
2023-09-06T22:54:40.008Z,20.62
2023-09-06T22:57:09.709Z,20.60
2023-09-06T22:59:36.857Z,20.52
2023-09-06T23:02:04.645Z,20.60
2023-09-06T23:04:34.471Z,20.56
2023-09-06T23:07:02.045Z,20.59
2023-09-06T23:09:28.799Z,20.62
2023-09-06T23:11:57.192Z,20.58
2023-09-06T23:14:24.997Z,20.64
2023-09-06T23:16:52.199Z,20.63
2023-09-06T23:19:25.208Z,20.63
2023-09-06T23:21:56.409Z,20.57
2023-09-06T23:24:24.022Z,20.50
2023-09-06T23:27:00.083Z,20.55
2023-09-06T23:29:35.994Z,20.53
2023-09-06T23:32:06.217Z,20.59
2023-09-06T23:34:35.451Z,20.51
2023-09-06T23:37:05.477Z,20.55
2023-09-06T23:39:34.698Z,20.45
2023-09-06T23:42:10.876Z,20.41
2023-09-06T23:44:42.332Z,20.22
2023-09-06T23:47:09.636Z,20.23
2023-09-06T23:49:37.435Z,20.30
2023-09-06T23:52:04.679Z,20.27
2023-09-06T23:54:44.632Z,20.27
2023-09-06T23:57:13.659Z,20.21
2023-09-06T23:59:40.262Z,20.25
